sensor_id;sensor_type;location;lat;lon;timestamp;pressure;altitude;pressure_sealevel;temperature;humidity
72066;BME280;59939;52.516;13.420;2022-07-17T00:01:01;101504.69;;;13.57;58.83
72066;BME280;59939;52.516;13.420;2022-07-17T00:04:06;101505.47;;;13.71;58.28
72066;BME280;59939;52.516;13.420;2022-07-17T00:07:23;101503.25;;;13.60;58.70
72066;BME280;59939;52.516;13.420;2022-07-17T00:10:28;101508.06;;;13.41;59.16
72066;BME280;59939;52.516;13.420;2022-07-17T00:13:32;101505.81;;;13.56;59.02
72066;BME280;59939;52.516;13.420;2022-07-17T00:16:36;101510.19;;;13.57;58.81
72066;BME280;59939;52.516;13.420;2022-07-17T00:19:41;101495.28;;;13.45;59.22
72066;BME280;59939;52.516;13.420;2022-07-17T00:22:46;101499.56;;;13.64;58.79
72066;BME280;59939;52.516;13.420;2022-07-17T00:25:51;101506.94;;;13.55;58.88
72066;BME280;59939;52.516;13.420;2022-07-17T00:28:55;101508.78;;;13.46;59.12
72066;BME280;59939;52.516;13.420;2022-07-17T00:31:59;101518.16;;;13.59;59.03
72066;BME280;59939;52.516;13.420;2022-07-17T00:35:04;101513.88;;;13.39;59.11
72066;BME280;59939;52.516;13.420;2022-07-17T00:38:08;101511.41;;;13.51;59.01
72066;BME280;59939;52.516;13.420;2022-07-17T00:41:14;101512.34;;;13.60;58.87
72066;BME280;59939;52.516;13.420;2022-07-17T00:44:18;101510.19;;;13.57;58.75
72066;BME280;59939;52.516;13.420;2022-07-17T00:47:22;101514.59;;;13.58;58.71
72066;BME280;59939;52.516;13.420;2022-07-17T00:50:33;101505.72;;;13.34;59.53
72066;BME280;59939;52.516;13.420;2022-07-17T00:53:39;101504.44;;;13.13;60.11
72066;BME280;59939;52.516;13.420;2022-07-17T00:56:45;101503.00;;;13.01;60.77
72066;BME280;59939;52.516;13.420;2022-07-17T00:59:49;101496.28;;;13.07;60.61
72066;BME280;59939;52.516;13.420;2022-07-17T01:02:55;101500.00;;;13.30;59.42
72066;BME280;59939;52.516;13.420;2022-07-17T01:05:59;101494.66;;;13.06;60.80
72066;BME280;59939;52.516;13.420;2022-07-17T01:09:03;101502.41;;;12.91;61.21
72066;BME280;59939;52.516;13.420;2022-07-17T01:12:08;101503.66;;;12.98;60.97
72066;BME280;59939;52.516;13.420;2022-07-17T01:15:14;101498.44;;;12.97;60.81
72066;BME280;59939;52.516;13.420;2022-07-17T01:18:22;101496.88;;;12.77;61.68
72066;BME280;59939;52.516;13.420;2022-07-17T01:21:39;101502.72;;;12.89;61.12
72066;BME280;59939;52.516;13.420;2022-07-17T01:24:43;101498.66;;;12.54;62.60
72066;BME280;59939;52.516;13.420;2022-07-17T01:27:48;101499.03;;;12.48;63.01
72066;BME280;59939;52.516;13.420;2022-07-17T01:30:52;101502.53;;;12.53;62.94
72066;BME280;59939;52.516;13.420;2022-07-17T01:33:58;101497.84;;;12.54;62.69
72066;BME280;59939;52.516;13.420;2022-07-17T01:37:03;101494.53;;;12.38;63.40
72066;BME280;59939;52.516;13.420;2022-07-17T01:40:09;101496.72;;;12.55;63.06
72066;BME280;59939;52.516;13.420;2022-07-17T01:43:14;101495.78;;;12.46;63.29
72066;BME280;59939;52.516;13.420;2022-07-17T01:46:18;101506.50;;;12.28;64.06
72066;BME280;59939;52.516;13.420;2022-07-17T01:49:22;101490.13;;;12.69;62.38
72066;BME280;59939;52.516;13.420;2022-07-17T01:52:27;101498.00;;;12.44;62.85
72066;BME280;59939;52.516;13.420;2022-07-17T01:55:31;101496.38;;;12.43;62.43
72066;BME280;59939;52.516;13.420;2022-07-17T01:58:36;101494.34;;;12.48;62.13
72066;BME280;59939;52.516;13.420;2022-07-17T02:01:40;101496.25;;;12.66;61.59
72066;BME280;59939;52.516;13.420;2022-07-17T02:04:44;101491.16;;;12.73;61.66
72066;BME280;59939;52.516;13.420;2022-07-17T02:07:49;101496.69;;;12.87;61.07
72066;BME280;59939;52.516;13.420;2022-07-17T02:10:53;101494.03;;;12.82;61.27
72066;BME280;59939;52.516;13.420;2022-07-17T02:13:57;101495.34;;;12.71;62.00
72066;BME280;59939;52.516;13.420;2022-07-17T02:17:02;101499.53;;;12.82;61.48
72066;BME280;59939;52.516;13.420;2022-07-17T02:20:07;101488.66;;;12.91;61.84
72066;BME280;59939;52.516;13.420;2022-07-17T02:23:12;101494.09;;;12.63;62.44
72066;BME280;59939;52.516;13.420;2022-07-17T02:26:16;101489.66;;;12.49;63.05
72066;BME280;59939;52.516;13.420;2022-07-17T02:29:20;101490.00;;;12.61;63.07
72066;BME280;59939;52.516;13.420;2022-07-17T02:32:25;101492.34;;;12.54;63.16
72066;BME280;59939;52.516;13.420;2022-07-17T02:35:29;101490.88;;;12.43;63.84
72066;BME280;59939;52.516;13.420;2022-07-17T02:38:33;101490.91;;;12.56;63.29
72066;BME280;59939;52.516;13.420;2022-07-17T02:41:37;101494.72;;;12.74;62.70
72066;BME280;59939;52.516;13.420;2022-07-17T02:44:42;101498.31;;;12.42;64.33
72066;BME280;59939;52.516;13.420;2022-07-17T02:47:46;101496.97;;;12.39;64.86
72066;BME280;59939;52.516;13.420;2022-07-17T02:50:50;101502.56;;;12.34;64.58
72066;BME280;59939;52.516;13.420;2022-07-17T02:53:54;101503.78;;;12.09;65.35
72066;BME280;59939;52.516;13.420;2022-07-17T02:56:59;101513.38;;;12.12;65.62
72066;BME280;59939;52.516;13.420;2022-07-17T03:00:05;101512.63;;;12.25;64.56
72066;BME280;59939;52.516;13.420;2022-07-17T03:03:10;101510.16;;;12.24;65.12
72066;BME280;59939;52.516;13.420;2022-07-17T03:06:14;101520.50;;;12.13;65.34
72066;BME280;59939;52.516;13.420;2022-07-17T03:09:18;101517.69;;;12.18;65.11
72066;BME280;59939;52.516;13.420;2022-07-17T03:12:22;101522.00;;;12.05;65.59
72066;BME280;59939;52.516;13.420;2022-07-17T03:15:27;101522.88;;;12.01;65.52
72066;BME280;59939;52.516;13.420;2022-07-17T03:18:31;101516.28;;;12.02;66.15
72066;BME280;59939;52.516;13.420;2022-07-17T03:21:35;101510.84;;;11.97;65.90
72066;BME280;59939;52.516;13.420;2022-07-17T03:24:39;101522.50;;;12.07;66.05
72066;BME280;59939;52.516;13.420;2022-07-17T03:27:43;101518.19;;;11.83;66.77
72066;BME280;59939;52.516;13.420;2022-07-17T03:30:48;101516.94;;;11.94;66.11
72066;BME280;59939;52.516;13.420;2022-07-17T03:33:52;101525.72;;;11.72;67.38
72066;BME280;59939;52.516;13.420;2022-07-17T03:36:56;101534.56;;;11.93;66.48
72066;BME280;59939;52.516;13.420;2022-07-17T03:40:00;101534.47;;;11.98;66.40
72066;BME280;59939;52.516;13.420;2022-07-17T03:43:05;101540.13;;;11.88;67.12
72066;BME280;59939;52.516;13.420;2022-07-17T03:46:09;101553.50;;;12.13;66.17
72066;BME280;59939;52.516;13.420;2022-07-17T03:49:13;101557.97;;;12.09;66.12
72066;BME280;59939;52.516;13.420;2022-07-17T03:52:17;101555.88;;;12.01;66.78
72066;BME280;59939;52.516;13.420;2022-07-17T03:55:21;101557.75;;;12.05;66.99
72066;BME280;59939;52.516;13.420;2022-07-17T03:58:26;101562.94;;;12.07;66.61
72066;BME280;59939;52.516;13.420;2022-07-17T04:01:32;101569.34;;;12.40;65.48
72066;BME280;59939;52.516;13.420;2022-07-17T04:04:37;101569.50;;;12.30;66.06
72066;BME280;59939;52.516;13.420;2022-07-17T04:07:42;101574.22;;;12.62;65.12
72066;BME280;59939;52.516;13.420;2022-07-17T04:10:46;101572.41;;;12.38;65.60
72066;BME280;59939;52.516;13.420;2022-07-17T04:13:50;101584.44;;;12.05;66.89
72066;BME280;59939;52.516;13.420;2022-07-17T04:16:55;101577.09;;;12.19;66.65
72066;BME280;59939;52.516;13.420;2022-07-17T04:19:59;101585.16;;;11.92;67.75
72066;BME280;59939;52.516;13.420;2022-07-17T04:23:17;101589.47;;;11.98;67.51
72066;BME280;59939;52.516;13.420;2022-07-17T04:26:21;101588.66;;;11.97;67.75
72066;BME280;59939;52.516;13.420;2022-07-17T04:29:26;101582.34;;;11.97;67.90
72066;BME280;59939;52.516;13.420;2022-07-17T04:32:34;101584.56;;;11.95;68.26
72066;BME280;59939;52.516;13.420;2022-07-17T04:35:52;101586.34;;;11.86;68.43
72066;BME280;59939;52.516;13.420;2022-07-17T04:39:04;101600.34;;;12.08;68.06
72066;BME280;59939;52.516;13.420;2022-07-17T04:42:08;101590.38;;;12.12;67.94
72066;BME280;59939;52.516;13.420;2022-07-17T04:45:12;101597.38;;;12.42;67.11
72066;BME280;59939;52.516;13.420;2022-07-17T04:48:25;101602.16;;;12.55;66.26
72066;BME280;59939;52.516;13.420;2022-07-17T04:51:32;101598.22;;;12.43;67.05
72066;BME280;59939;52.516;13.420;2022-07-17T04:54:36;101594.38;;;12.76;65.58
72066;BME280;59939;52.516;13.420;2022-07-17T04:57:41;101594.63;;;12.42;66.79
72066;BME280;59939;52.516;13.420;2022-07-17T05:00:45;101604.97;;;12.69;65.85
72066;BME280;59939;52.516;13.420;2022-07-17T05:03:49;101599.38;;;12.55;66.42
72066;BME280;59939;52.516;13.420;2022-07-17T05:06:55;101604.50;;;12.81;65.72
72066;BME280;59939;52.516;13.420;2022-07-17T05:10:08;101598.34;;;12.70;65.86
72066;BME280;59939;52.516;13.420;2022-07-17T05:13:14;101596.19;;;12.67;66.13
72066;BME280;59939;52.516;13.420;2022-07-17T05:16:19;101580.31;;;12.78;65.24
72066;BME280;59939;52.516;13.420;2022-07-17T05:19:23;101598.41;;;12.65;66.13
72066;BME280;59939;52.516;13.420;2022-07-17T05:22:27;101602.78;;;12.85;65.07
72066;BME280;59939;52.516;13.420;2022-07-17T05:25:32;101607.06;;;12.91;64.96
72066;BME280;59939;52.516;13.420;2022-07-17T05:28:37;101605.88;;;13.11;64.07
72066;BME280;59939;52.516;13.420;2022-07-17T05:31:55;101600.66;;;12.95;64.75
72066;BME280;59939;52.516;13.420;2022-07-17T05:35:16;101606.38;;;13.31;63.76
72066;BME280;59939;52.516;13.420;2022-07-17T05:38:21;101605.78;;;13.48;62.91
72066;BME280;59939;52.516;13.420;2022-07-17T05:41:28;101613.31;;;13.43;62.82
72066;BME280;59939;52.516;13.420;2022-07-17T05:44:32;101612.78;;;13.27;63.46
72066;BME280;59939;52.516;13.420;2022-07-17T05:47:37;101621.88;;;13.41;62.42
72066;BME280;59939;52.516;13.420;2022-07-17T05:50:42;101624.94;;;13.39;62.19
72066;BME280;59939;52.516;13.420;2022-07-17T05:53:48;101625.19;;;13.98;59.95
72066;BME280;59939;52.516;13.420;2022-07-17T05:56:52;101633.56;;;13.93;59.45
72066;BME280;59939;52.516;13.420;2022-07-17T05:59:57;101634.75;;;14.14;59.46
72066;BME280;59939;52.516;13.420;2022-07-17T06:03:01;101627.03;;;13.89;59.18
72066;BME280;59939;52.516;13.420;2022-07-17T06:06:05;101648.59;;;14.36;58.17
72066;BME280;59939;52.516;13.420;2022-07-17T06:09:09;101651.28;;;14.42;57.61
72066;BME280;59939;52.516;13.420;2022-07-17T06:12:14;101648.06;;;14.62;56.45
72066;BME280;59939;52.516;13.420;2022-07-17T06:15:19;101647.69;;;14.77;55.55
72066;BME280;59939;52.516;13.420;2022-07-17T06:18:25;101642.34;;;14.58;56.38
72066;BME280;59939;52.516;13.420;2022-07-17T06:21:29;101648.34;;;14.24;56.94
72066;BME280;59939;52.516;13.420;2022-07-17T06:24:33;101644.28;;;14.58;55.89
72066;BME280;59939;52.516;13.420;2022-07-17T06:27:41;101645.00;;;15.08;54.54
72066;BME280;59939;52.516;13.420;2022-07-17T06:30:46;101642.03;;;15.05;54.08
72066;BME280;59939;52.516;13.420;2022-07-17T06:33:50;101638.19;;;15.37;53.14
72066;BME280;59939;52.516;13.420;2022-07-17T06:36:55;101645.94;;;15.04;53.32
72066;BME280;59939;52.516;13.420;2022-07-17T06:39:59;101630.56;;;14.89;53.95
72066;BME280;59939;52.516;13.420;2022-07-17T06:43:05;101647.44;;;15.32;52.49
72066;BME280;59939;52.516;13.420;2022-07-17T06:46:09;101642.16;;;14.77;54.16
72066;BME280;59939;52.516;13.420;2022-07-17T06:49:15;101646.50;;;14.69;54.49
72066;BME280;59939;52.516;13.420;2022-07-17T06:52:21;101643.41;;;14.71;54.68
72066;BME280;59939;52.516;13.420;2022-07-17T06:55:33;101655.84;;;15.27;52.72
72066;BME280;59939;52.516;13.420;2022-07-17T06:58:38;101647.19;;;15.20;53.17
72066;BME280;59939;52.516;13.420;2022-07-17T07:01:45;101648.53;;;16.02;50.85
72066;BME280;59939;52.516;13.420;2022-07-17T07:04:49;101647.81;;;15.79;51.21
72066;BME280;59939;52.516;13.420;2022-07-17T07:07:54;101661.66;;;15.48;51.91
72066;BME280;59939;52.516;13.420;2022-07-17T07:11:00;101666.41;;;15.25;53.06
72066;BME280;59939;52.516;13.420;2022-07-17T07:14:06;101662.69;;;15.91;51.51
72066;BME280;59939;52.516;13.420;2022-07-17T07:17:12;101662.16;;;15.81;51.19
72066;BME280;59939;52.516;13.420;2022-07-17T07:20:20;101672.19;;;15.37;52.77
72066;BME280;59939;52.516;13.420;2022-07-17T07:23:24;101675.53;;;15.25;53.02
72066;BME280;59939;52.516;13.420;2022-07-17T07:26:28;101663.78;;;14.97;53.78
72066;BME280;59939;52.516;13.420;2022-07-17T07:29:32;101673.25;;;15.27;53.15
72066;BME280;59939;52.516;13.420;2022-07-17T07:32:41;101675.91;;;15.32;53.19
72066;BME280;59939;52.516;13.420;2022-07-17T07:35:48;101656.56;;;15.72;52.12
72066;BME280;59939;52.516;13.420;2022-07-17T07:38:52;101680.06;;;15.83;51.57
72066;BME280;59939;52.516;13.420;2022-07-17T07:41:56;101670.59;;;15.45;52.69
72066;BME280;59939;52.516;13.420;2022-07-17T07:45:03;101691.97;;;15.53;52.41
72066;BME280;59939;52.516;13.420;2022-07-17T07:48:07;101678.53;;;15.15;53.66
72066;BME280;59939;52.516;13.420;2022-07-17T07:51:12;101681.84;;;14.81;54.95
72066;BME280;59939;52.516;13.420;2022-07-17T07:54:16;101681.38;;;15.24;53.52
72066;BME280;59939;52.516;13.420;2022-07-17T07:57:20;101667.50;;;14.93;54.29
72066;BME280;59939;52.516;13.420;2022-07-17T08:00:25;101675.28;;;14.91;54.47
72066;BME280;59939;52.516;13.420;2022-07-17T08:03:29;101682.50;;;15.23;53.79
72066;BME280;59939;52.516;13.420;2022-07-17T08:06:36;101682.56;;;14.87;54.99
72066;BME280;59939;52.516;13.420;2022-07-17T08:09:41;101682.75;;;15.35;53.38
72066;BME280;59939;52.516;13.420;2022-07-17T08:12:46;101697.41;;;15.66;52.83
72066;BME280;59939;52.516;13.420;2022-07-17T08:15:50;101679.31;;;16.00;51.88
72066;BME280;59939;52.516;13.420;2022-07-17T08:18:56;101693.44;;;16.47;51.13
72066;BME280;59939;52.516;13.420;2022-07-17T08:22:02;101686.69;;;15.74;53.15
72066;BME280;59939;52.516;13.420;2022-07-17T08:25:07;101692.75;;;16.33;51.47
72066;BME280;59939;52.516;13.420;2022-07-17T08:28:11;101693.81;;;16.06;51.94
72066;BME280;59939;52.516;13.420;2022-07-17T08:31:16;101692.66;;;15.98;51.96
72066;BME280;59939;52.516;13.420;2022-07-17T08:34:22;101688.75;;;15.99;52.30
72066;BME280;59939;52.516;13.420;2022-07-17T08:37:26;101696.16;;;16.21;51.38
72066;BME280;59939;52.516;13.420;2022-07-17T08:40:32;101697.56;;;16.92;49.47
72066;BME280;59939;52.516;13.420;2022-07-17T08:43:37;101697.56;;;17.18;48.67
72066;BME280;59939;52.516;13.420;2022-07-17T08:46:55;101691.84;;;17.15;48.91
72066;BME280;59939;52.516;13.420;2022-07-17T08:50:01;101702.31;;;16.66;49.29
72066;BME280;59939;52.516;13.420;2022-07-17T08:53:08;101690.25;;;16.88;47.74
72066;BME280;59939;52.516;13.420;2022-07-17T08:56:15;101698.19;;;17.33;46.82
72066;BME280;59939;52.516;13.420;2022-07-17T08:59:20;101700.97;;;17.07;48.19
72066;BME280;59939;52.516;13.420;2022-07-17T09:02:31;101704.78;;;17.75;46.62
72066;BME280;59939;52.516;13.420;2022-07-17T09:05:43;101701.03;;;16.89;48.74
72066;BME280;59939;52.516;13.420;2022-07-17T09:09:21;101695.78;;;16.96;48.23
72066;BME280;59939;52.516;13.420;2022-07-17T09:12:29;101690.38;;;17.26;47.65
72066;BME280;59939;52.516;13.420;2022-07-17T09:15:34;101690.38;;;17.90;46.01
72066;BME280;59939;52.516;13.420;2022-07-17T09:18:51;101699.28;;;19.83;41.95
72066;BME280;59939;52.516;13.420;2022-07-17T09:22:14;101693.59;;;20.93;39.51
72066;BME280;59939;52.516;13.420;2022-07-17T09:25:54;101706.81;;;18.54;44.20
72066;BME280;59939;52.516;13.420;2022-07-17T09:28:56;101692.44;;;18.52;44.91
72066;BME280;59939;52.516;13.420;2022-07-17T09:32:00;101691.59;;;19.68;42.14
72066;BME280;59939;52.516;13.420;2022-07-17T09:35:25;101686.09;;;19.47;42.25
72066;BME280;59939;52.516;13.420;2022-07-17T09:38:38;101679.44;;;19.84;41.98
72066;BME280;59939;52.516;13.420;2022-07-17T09:41:43;101679.84;;;19.50;42.79
72066;BME280;59939;52.516;13.420;2022-07-17T09:45:10;101695.22;;;18.81;44.00
72066;BME280;59939;52.516;13.420;2022-07-17T09:48:15;101688.59;;;17.13;47.48
72066;BME280;59939;52.516;13.420;2022-07-17T09:51:30;101691.34;;;17.30;48.43
72066;BME280;59939;52.516;13.420;2022-07-17T09:54:35;101682.63;;;17.66;47.25
72066;BME280;59939;52.516;13.420;2022-07-17T09:57:40;101691.09;;;17.61;47.26
72066;BME280;59939;52.516;13.420;2022-07-17T10:00:46;101695.25;;;17.20;48.04
72066;BME280;59939;52.516;13.420;2022-07-17T10:03:53;101697.44;;;16.72;49.41
72066;BME280;59939;52.516;13.420;2022-07-17T10:06:57;101692.22;;;16.87;49.17
72066;BME280;59939;52.516;13.420;2022-07-17T10:10:02;101666.22;;;17.26;48.49
72066;BME280;59939;52.516;13.420;2022-07-17T10:13:06;101687.47;;;17.78;47.18
72066;BME280;59939;52.516;13.420;2022-07-17T10:16:11;101693.84;;;18.16;45.95
72066;BME280;59939;52.516;13.420;2022-07-17T10:19:21;101681.19;;;18.78;43.62
72066;BME280;59939;52.516;13.420;2022-07-17T10:22:27;101680.75;;;18.67;44.10
72066;BME280;59939;52.516;13.420;2022-07-17T10:25:31;101685.56;;;18.29;45.28
72066;BME280;59939;52.516;13.420;2022-07-17T10:28:46;101683.72;;;20.06;40.72
72066;BME280;59939;52.516;13.420;2022-07-17T10:32:06;101690.59;;;19.06;42.29
72066;BME280;59939;52.516;13.420;2022-07-17T10:35:17;101683.81;;;19.61;41.91
72066;BME280;59939;52.516;13.420;2022-07-17T10:38:26;101671.31;;;20.80;39.68
72066;BME280;59939;52.516;13.420;2022-07-17T10:41:31;101679.56;;;20.12;40.51
72066;BME280;59939;52.516;13.420;2022-07-17T10:44:37;101671.84;;;21.26;37.79
72066;BME280;59939;52.516;13.420;2022-07-17T10:51:12;101670.16;;;21.37;37.68
72066;BME280;59939;52.516;13.420;2022-07-17T10:54:18;101692.25;;;19.19;41.80
72066;BME280;59939;52.516;13.420;2022-07-17T10:57:22;101678.94;;;19.25;42.06
72066;BME280;59939;52.516;13.420;2022-07-17T11:00:27;101673.56;;;19.53;42.17
72066;BME280;59939;52.516;13.420;2022-07-17T11:06:48;101671.03;;;20.70;39.66
72066;BME280;59939;52.516;13.420;2022-07-17T11:09:53;101656.56;;;20.28;39.36
72066;BME280;59939;52.516;13.420;2022-07-17T11:13:08;101674.41;;;20.63;38.56
72066;BME280;59939;52.516;13.420;2022-07-17T11:16:26;101653.50;;;21.13;37.66
72066;BME280;59939;52.516;13.420;2022-07-17T11:19:32;101680.00;;;20.51;38.22
72066;BME280;59939;52.516;13.420;2022-07-17T11:22:37;101673.59;;;19.65;40.63
72066;BME280;59939;52.516;13.420;2022-07-17T11:25:59;101679.19;;;20.26;39.21
72066;BME280;59939;52.516;13.420;2022-07-17T11:29:05;101681.00;;;21.86;35.56
72066;BME280;59939;52.516;13.420;2022-07-17T11:32:12;101671.25;;;21.48;36.64
72066;BME280;59939;52.516;13.420;2022-07-17T11:35:30;101675.47;;;22.37;35.05
72066;BME280;59939;52.516;13.420;2022-07-17T11:38:44;101663.69;;;22.82;34.24
72066;BME280;59939;52.516;13.420;2022-07-17T11:41:50;101656.00;;;23.60;33.38
72066;BME280;59939;52.516;13.420;2022-07-17T11:45:21;101662.16;;;22.85;34.32
72066;BME280;59939;52.516;13.420;2022-07-17T11:48:27;101654.94;;;22.13;36.14
72066;BME280;59939;52.516;13.420;2022-07-17T11:51:45;101651.53;;;24.04;32.47
72066;BME280;59939;52.516;13.420;2022-07-17T11:54:53;101655.19;;;24.31;32.14
72066;BME280;59939;52.516;13.420;2022-07-17T11:58:08;101660.03;;;22.62;33.71
72066;BME280;59939;52.516;13.420;2022-07-17T12:01:14;101649.31;;;22.29;34.71
72066;BME280;59939;52.516;13.420;2022-07-17T12:04:19;101657.50;;;21.87;35.21
72066;BME280;59939;52.516;13.420;2022-07-17T12:07:37;101655.94;;;23.79;31.96
72066;BME280;59939;52.516;13.420;2022-07-17T12:10:41;101652.16;;;22.13;34.52
72066;BME280;59939;52.516;13.420;2022-07-17T12:13:47;101647.81;;;21.37;36.04
72066;BME280;59939;52.516;13.420;2022-07-17T12:17:18;101656.31;;;22.39;34.70
72066;BME280;59939;52.516;13.420;2022-07-17T12:20:22;101658.41;;;23.38;32.25
72066;BME280;59939;52.516;13.420;2022-07-17T12:23:38;101656.13;;;24.16;30.97
72066;BME280;59939;52.516;13.420;2022-07-17T12:26:44;101644.41;;;26.26;27.94
72066;BME280;59939;52.516;13.420;2022-07-17T12:29:49;101643.91;;;25.62;28.74
72066;BME280;59939;52.516;13.420;2022-07-17T12:32:53;101646.63;;;24.81;29.87
72066;BME280;59939;52.516;13.420;2022-07-17T12:35:57;101647.84;;;23.74;31.49
72066;BME280;59939;52.516;13.420;2022-07-17T12:39:02;101637.91;;;24.56;30.17
72066;BME280;59939;52.516;13.420;2022-07-17T12:42:07;101623.41;;;26.82;27.46
72066;BME280;59939;52.516;13.420;2022-07-17T12:45:12;101620.50;;;26.64;27.00
72066;BME280;59939;52.516;13.420;2022-07-17T12:48:16;101624.94;;;25.11;28.71
72066;BME280;59939;52.516;13.420;2022-07-17T12:51:23;101620.53;;;25.98;28.03
72066;BME280;59939;52.516;13.420;2022-07-17T12:54:33;101614.94;;;24.20;30.52
72066;BME280;59939;52.516;13.420;2022-07-17T12:57:37;101621.59;;;24.35;30.92
72066;BME280;59939;52.516;13.420;2022-07-17T13:00:48;101611.81;;;26.21;27.22
72066;BME280;59939;52.516;13.420;2022-07-17T13:03:55;101603.41;;;24.89;28.93
72066;BME280;59939;52.516;13.420;2022-07-17T13:07:06;101611.63;;;25.45;28.06
72066;BME280;59939;52.516;13.420;2022-07-17T13:10:11;101603.34;;;26.14;26.56
72066;BME280;59939;52.516;13.420;2022-07-17T13:13:15;101602.81;;;25.91;27.26
72066;BME280;59939;52.516;13.420;2022-07-17T13:16:22;101592.63;;;25.72;27.56
72066;BME280;59939;52.516;13.420;2022-07-17T13:19:26;101594.75;;;25.42;28.54
72066;BME280;59939;52.516;13.420;2022-07-17T13:22:31;101595.56;;;22.74;32.28
72066;BME280;59939;52.516;13.420;2022-07-17T13:25:37;101582.09;;;24.21;30.14
72066;BME280;59939;52.516;13.420;2022-07-17T13:28:41;101587.44;;;24.59;29.34
72066;BME280;59939;52.516;13.420;2022-07-17T13:31:45;101587.59;;;24.14;30.20
72066;BME280;59939;52.516;13.420;2022-07-17T13:34:55;101587.09;;;25.86;27.72
72066;BME280;59939;52.516;13.420;2022-07-17T13:37:59;101586.31;;;25.89;27.69
72066;BME280;59939;52.516;13.420;2022-07-17T13:41:16;101575.53;;;24.36;30.30
72066;BME280;59939;52.516;13.420;2022-07-17T13:44:21;101587.25;;;24.45;29.95
72066;BME280;59939;52.516;13.420;2022-07-17T13:47:27;101582.72;;;23.58;30.63
72066;BME280;59939;52.516;13.420;2022-07-17T13:50:32;101566.28;;;24.35;29.47
72066;BME280;59939;52.516;13.420;2022-07-17T13:53:37;101569.00;;;26.56;26.07
72066;BME280;59939;52.516;13.420;2022-07-17T13:56:41;101561.13;;;27.58;25.33
72066;BME280;59939;52.516;13.420;2022-07-17T13:59:46;101559.44;;;28.32;24.18
72066;BME280;59939;52.516;13.420;2022-07-17T14:02:50;101563.69;;;25.68;27.71
72066;BME280;59939;52.516;13.420;2022-07-17T14:05:54;101567.53;;;24.38;29.83
72066;BME280;59939;52.516;13.420;2022-07-17T14:08:59;101568.56;;;25.78;27.52
72066;BME280;59939;52.516;13.420;2022-07-17T14:12:03;101562.28;;;26.86;26.04
72066;BME280;59939;52.516;13.420;2022-07-17T14:15:09;101554.31;;;27.09;25.07
72066;BME280;59939;52.516;13.420;2022-07-17T14:18:16;101556.59;;;25.88;26.98
72066;BME280;59939;52.516;13.420;2022-07-17T14:21:22;101558.16;;;25.82;27.04
72066;BME280;59939;52.516;13.420;2022-07-17T14:24:26;101557.75;;;24.95;28.23
72066;BME280;59939;52.516;13.420;2022-07-17T14:27:31;101552.63;;;26.94;25.76
72066;BME280;59939;52.516;13.420;2022-07-17T14:30:39;101545.06;;;27.19;24.59
72066;BME280;59939;52.516;13.420;2022-07-17T14:33:44;101555.41;;;26.73;25.65
72066;BME280;59939;52.516;13.420;2022-07-17T14:36:49;101539.41;;;27.73;24.53
72066;BME280;59939;52.516;13.420;2022-07-17T14:40:07;101547.41;;;25.44;26.19
72066;BME280;59939;52.516;13.420;2022-07-17T14:43:14;101546.63;;;25.47;27.78
72066;BME280;59939;52.516;13.420;2022-07-17T14:46:20;101553.31;;;25.76;27.53
72066;BME280;59939;52.516;13.420;2022-07-17T14:49:32;101543.00;;;24.65;28.71
72066;BME280;59939;52.516;13.420;2022-07-17T14:52:37;101545.69;;;26.59;26.24
72066;BME280;59939;52.516;13.420;2022-07-17T14:55:41;101535.72;;;25.89;27.14
72066;BME280;59939;52.516;13.420;2022-07-17T14:58:45;101531.97;;;26.44;26.48
72066;BME280;59939;52.516;13.420;2022-07-17T15:01:51;101532.47;;;26.71;26.00
72066;BME280;59939;52.516;13.420;2022-07-17T15:05:09;101540.50;;;25.82;27.55
72066;BME280;59939;52.516;13.420;2022-07-17T15:08:27;101541.78;;;27.88;24.58
72066;BME280;59939;52.516;13.420;2022-07-17T15:11:31;101538.94;;;25.91;27.35
72066;BME280;59939;52.516;13.420;2022-07-17T15:14:37;101542.91;;;25.35;27.54
72066;BME280;59939;52.516;13.420;2022-07-17T15:17:43;101533.88;;;25.12;28.05
72066;BME280;59939;52.516;13.420;2022-07-17T15:20:49;101531.81;;;25.50;26.70
72066;BME280;59939;52.516;13.420;2022-07-17T15:23:54;101533.84;;;24.71;28.25
72066;BME280;59939;52.516;13.420;2022-07-17T15:27:00;101524.16;;;25.47;27.27
72066;BME280;59939;52.516;13.420;2022-07-17T15:30:05;101524.56;;;25.01;27.56
72066;BME280;59939;52.516;13.420;2022-07-17T15:33:10;101519.97;;;25.26;27.15
72066;BME280;59939;52.516;13.420;2022-07-17T15:36:14;101515.56;;;25.77;26.59
72066;BME280;59939;52.516;13.420;2022-07-17T15:39:28;101526.59;;;25.52;26.75
72066;BME280;59939;52.516;13.420;2022-07-17T15:42:35;101526.69;;;24.11;28.33
72066;BME280;59939;52.516;13.420;2022-07-17T15:45:41;101521.84;;;24.75;27.97
72066;BME280;59939;52.516;13.420;2022-07-17T15:48:48;101526.13;;;25.97;26.03
72066;BME280;59939;52.516;13.420;2022-07-17T15:51:52;101503.72;;;26.19;24.64
72066;BME280;59939;52.516;13.420;2022-07-17T15:54:59;101499.56;;;24.92;26.56
72066;BME280;59939;52.516;13.420;2022-07-17T15:58:05;101500.41;;;25.95;24.91
72066;BME280;59939;52.516;13.420;2022-07-17T16:01:13;101497.84;;;26.59;24.49
72066;BME280;59939;52.516;13.420;2022-07-17T16:04:25;101500.78;;;25.35;25.86
72066;BME280;59939;52.516;13.420;2022-07-17T16:07:29;101496.72;;;24.48;27.48
72066;BME280;59939;52.516;13.420;2022-07-17T16:10:33;101495.50;;;25.82;25.41